LKTA weather

Tábor Airport
Tábor, South Bohemian Region, Czech Republic

Public forecast

Using degrees Celsius for public forecast. Weather courtesy of forecast.io.

Closest aviation weather report (METAR) to Tábor Airport

Closest report is Čáslav Air Base, 42.1 nm (77.9 km) NE. Retrieved 2020/01/17 18:00 UTC (17 minutes ago):

LKCV 171800Z 15008KT 9999 OVC010 00/M02 Q1021 NOSIG RMK GRN GRN

Closest aviation forecast (TAF) to Tábor Airport

Closest forecast is Čáslav Air Base, 42.1 nm (77.9 km) NE. Retrieved 2020/01/17 18:00 UTC (17 minutes ago):

TAF LKCV 171700Z 1718/1818 15010KT 9999 OVC013 TEMPO 1718/1720 14017KT TEMPO 1718/1800 3000 BR OVC006 PROB40 TEMPO 1718/1800 0800 FZFG OVC002 TEMPO 1802/1816 3000 FZRASN OVC007 PROB30 1804/1812 1200 SN OVC003